sensor_id;sensor_type;location;lat;lon;timestamp;P1;durP1;ratioP1;P2;durP2;ratioP2
12459;SDS011;6295;49.452;8.466;2023-05-07T04:14:39;4.33;;;3.60;;
12459;SDS011;6295;49.452;8.466;2023-05-07T04:18:41;5.00;;;3.80;;
12459;SDS011;6295;49.452;8.466;2023-05-07T04:22:43;5.20;;;3.60;;
12459;SDS011;6295;49.452;8.466;2023-05-07T04:26:45;4.03;;;3.73;;
12459;SDS011;6295;49.452;8.466;2023-05-07T04:30:49;4.00;;;3.60;;
12459;SDS011;6295;49.452;8.466;2023-05-07T04:34:51;5.17;;;4.00;;
12459;SDS011;6295;49.452;8.466;2023-05-07T04:38:53;3.73;;;3.43;;
12459;SDS011;6295;49.452;8.466;2023-05-07T04:42:55;4.00;;;3.60;;
12459;SDS011;6295;49.452;8.466;2023-05-07T04:46:59;3.83;;;3.43;;
12459;SDS011;6295;49.452;8.466;2023-05-07T04:51:01;4.23;;;3.73;;
12459;SDS011;6295;49.452;8.466;2023-05-07T04:55:03;4.00;;;3.60;;
12459;SDS011;6295;49.452;8.466;2023-05-07T04:59:06;4.17;;;3.80;;
12459;SDS011;6295;49.452;8.466;2023-05-07T05:03:09;4.17;;;3.77;;
12459;SDS011;6295;49.452;8.466;2023-05-07T05:07:11;3.97;;;3.67;;
12459;SDS011;6295;49.452;8.466;2023-05-07T05:11:14;3.77;;;3.43;;
12459;SDS011;6295;49.452;8.466;2023-05-07T05:15:16;4.23;;;3.67;;
12459;SDS011;6295;49.452;8.466;2023-05-07T05:19:20;4.33;;;3.90;;
12459;SDS011;6295;49.452;8.466;2023-05-07T05:23:22;4.53;;;4.13;;
12459;SDS011;6295;49.452;8.466;2023-05-07T05:27:24;4.20;;;3.80;;
12459;SDS011;6295;49.452;8.466;2023-05-07T05:31:26;4.30;;;3.90;;
12459;SDS011;6295;49.452;8.466;2023-05-07T05:35:29;5.80;;;4.20;;
12459;SDS011;6295;49.452;8.466;2023-05-07T05:39:32;4.80;;;4.17;;
12459;SDS011;6295;49.452;8.466;2023-05-07T05:43:34;4.20;;;3.80;;
12459;SDS011;6295;49.452;8.466;2023-05-07T05:47:37;4.47;;;3.80;;
12459;SDS011;6295;49.452;8.466;2023-05-07T05:51:41;4.10;;;3.80;;
12459;SDS011;6295;49.452;8.466;2023-05-07T05:55:43;4.30;;;3.80;;
12459;SDS011;6295;49.452;8.466;2023-05-07T05:59:45;4.37;;;3.97;;
12459;SDS011;6295;49.452;8.466;2023-05-07T06:03:48;6.87;;;5.57;;
12459;SDS011;6295;49.452;8.466;2023-05-07T06:07:52;5.30;;;4.80;;
12459;SDS011;6295;49.452;8.466;2023-05-07T06:11:55;6.03;;;5.40;;
12459;SDS011;6295;49.452;8.466;2023-05-07T06:16:02;6.03;;;5.43;;
12459;SDS011;6295;49.452;8.466;2023-05-07T06:20:04;7.53;;;6.63;;
12459;SDS011;6295;49.452;8.466;2023-05-07T06:24:09;6.20;;;5.60;;
12459;SDS011;6295;49.452;8.466;2023-05-07T06:28:11;6.63;;;5.77;;
12459;SDS011;6295;49.452;8.466;2023-05-07T06:32:13;6.63;;;5.77;;
12459;SDS011;6295;49.452;8.466;2023-05-07T06:36:17;5.73;;;5.13;;
12459;SDS011;6295;49.452;8.466;2023-05-07T06:40:20;6.57;;;4.60;;
12459;SDS011;6295;49.452;8.466;2023-05-07T06:44:22;5.30;;;4.80;;
12459;SDS011;6295;49.452;8.466;2023-05-07T06:48:25;6.57;;;4.80;;
12459;SDS011;6295;49.452;8.466;2023-05-07T06:52:27;4.80;;;4.40;;
12459;SDS011;6295;49.452;8.466;2023-05-07T06:56:31;4.70;;;4.30;;
12459;SDS011;6295;49.452;8.466;2023-05-07T07:00:33;5.23;;;4.63;;
12459;SDS011;6295;49.452;8.466;2023-05-07T07:04:35;5.53;;;4.90;;
12459;SDS011;6295;49.452;8.466;2023-05-07T07:08:37;5.17;;;4.67;;
12459;SDS011;6295;49.452;8.466;2023-05-07T07:12:41;5.17;;;3.93;;
12459;SDS011;6295;49.452;8.466;2023-05-07T07:16:44;6.43;;;4.23;;
12459;SDS011;6295;49.452;8.466;2023-05-07T07:20:46;4.90;;;4.43;;
12459;SDS011;6295;49.452;8.466;2023-05-07T07:24:49;5.20;;;4.30;;
12459;SDS011;6295;49.452;8.466;2023-05-07T07:28:53;4.80;;;4.40;;
12459;SDS011;6295;49.452;8.466;2023-05-07T07:32:55;4.33;;;3.93;;
12459;SDS011;6295;49.452;8.466;2023-05-07T07:37:02;5.27;;;4.13;;
12459;SDS011;6295;49.452;8.466;2023-05-07T07:41:07;4.70;;;4.23;;
12459;SDS011;6295;49.452;8.466;2023-05-07T07:45:11;4.83;;;4.33;;
12459;SDS011;6295;49.452;8.466;2023-05-07T07:49:13;4.70;;;4.30;;
12459;SDS011;6295;49.452;8.466;2023-05-07T07:53:16;6.13;;;5.57;;
12459;SDS011;6295;49.452;8.466;2023-05-07T07:57:18;5.70;;;5.20;;
12459;SDS011;6295;49.452;8.466;2023-05-07T08:01:22;7.13;;;6.10;;
12459;SDS011;6295;49.452;8.466;2023-05-07T08:05:24;7.43;;;5.67;;
12459;SDS011;6295;49.452;8.466;2023-05-07T08:09:26;7.13;;;5.07;;
12459;SDS011;6295;49.452;8.466;2023-05-07T08:13:28;6.03;;;5.33;;
12459;SDS011;6295;49.452;8.466;2023-05-07T08:17:32;6.93;;;4.57;;
12459;SDS011;6295;49.452;8.466;2023-05-07T08:21:38;4.23;;;3.50;;
12459;SDS011;6295;49.452;8.466;2023-05-07T08:25:43;5.37;;;4.70;;
12459;SDS011;6295;49.452;8.466;2023-05-07T08:29:45;5.80;;;4.63;;
12459;SDS011;6295;49.452;8.466;2023-05-07T08:33:49;5.43;;;4.87;;
12459;SDS011;6295;49.452;8.466;2023-05-07T08:37:51;6.30;;;4.70;;
12459;SDS011;6295;49.452;8.466;2023-05-07T08:41:55;6.47;;;5.47;;
12459;SDS011;6295;49.452;8.466;2023-05-07T08:45:58;6.13;;;5.17;;
12459;SDS011;6295;49.452;8.466;2023-05-07T08:50:05;7.60;;;5.57;;
12459;SDS011;6295;49.452;8.466;2023-05-07T08:54:08;4.87;;;4.47;;
12459;SDS011;6295;49.452;8.466;2023-05-07T08:58:12;5.87;;;4.90;;
12459;SDS011;6295;49.452;8.466;2023-05-07T09:02:14;5.97;;;5.17;;
12459;SDS011;6295;49.452;8.466;2023-05-07T09:06:19;4.60;;;4.20;;
12459;SDS011;6295;49.452;8.466;2023-05-07T09:10:22;4.33;;;3.83;;
12459;SDS011;6295;49.452;8.466;2023-05-07T09:14:24;4.23;;;3.40;;
12459;SDS011;6295;49.452;8.466;2023-05-07T09:18:26;4.33;;;3.90;;
12459;SDS011;6295;49.452;8.466;2023-05-07T09:22:29;4.77;;;3.97;;
12459;SDS011;6295;49.452;8.466;2023-05-07T09:26:33;4.77;;;4.10;;
12459;SDS011;6295;49.452;8.466;2023-05-07T09:30:35;5.60;;;3.80;;
12459;SDS011;6295;49.452;8.466;2023-05-07T09:34:37;5.00;;;3.77;;
12459;SDS011;6295;49.452;8.466;2023-05-07T09:38:41;5.23;;;3.67;;
12459;SDS011;6295;49.452;8.466;2023-05-07T09:42:43;5.30;;;3.73;;
12459;SDS011;6295;49.452;8.466;2023-05-07T09:46:48;3.83;;;3.53;;
12459;SDS011;6295;49.452;8.466;2023-05-07T09:50:55;3.90;;;3.60;;
12459;SDS011;6295;49.452;8.466;2023-05-07T09:55:00;4.33;;;3.70;;
12459;SDS011;6295;49.452;8.466;2023-05-07T09:59:03;16.43;;;14.47;;
12459;SDS011;6295;49.452;8.466;2023-05-07T10:03:08;5.10;;;4.60;;
12459;SDS011;6295;49.452;8.466;2023-05-07T10:07:13;5.90;;;3.70;;
12459;SDS011;6295;49.452;8.466;2023-05-07T10:11:18;7.37;;;3.50;;
12459;SDS011;6295;49.452;8.466;2023-05-07T10:15:21;4.00;;;3.60;;
12459;SDS011;6295;49.452;8.466;2023-05-07T10:19:24;3.33;;;3.13;;
12459;SDS011;6295;49.452;8.466;2023-05-07T10:23:27;3.77;;;3.07;;
12459;SDS011;6295;49.452;8.466;2023-05-07T10:27:32;3.33;;;3.00;;
12459;SDS011;6295;49.452;8.466;2023-05-07T10:31:48;3.20;;;2.90;;
12459;SDS011;6295;49.452;8.466;2023-05-07T10:35:57;4.07;;;3.30;;
12459;SDS011;6295;49.452;8.466;2023-05-07T10:40:01;3.70;;;3.40;;
12459;SDS011;6295;49.452;8.466;2023-05-07T10:44:06;3.40;;;3.10;;
12459;SDS011;6295;49.452;8.466;2023-05-07T10:48:09;3.40;;;3.10;;
12459;SDS011;6295;49.452;8.466;2023-05-07T10:52:16;3.63;;;3.10;;
12459;SDS011;6295;49.452;8.466;2023-05-07T10:56:26;3.60;;;3.30;;
12459;SDS011;6295;49.452;8.466;2023-05-07T11:00:42;4.90;;;3.30;;
12459;SDS011;6295;49.452;8.466;2023-05-07T11:04:44;3.40;;;3.10;;
12459;SDS011;6295;49.452;8.466;2023-05-07T11:09:07;3.87;;;3.30;;
12459;SDS011;6295;49.452;8.466;2023-05-07T11:13:09;5.10;;;2.97;;
12459;SDS011;6295;49.452;8.466;2023-05-07T11:17:12;3.10;;;2.80;;
12459;SDS011;6295;49.452;8.466;2023-05-07T11:21:20;3.30;;;3.00;;
12459;SDS011;6295;49.452;8.466;2023-05-07T11:25:33;3.80;;;3.37;;
12459;SDS011;6295;49.452;8.466;2023-05-07T11:29:35;4.33;;;3.43;;
12459;SDS011;6295;49.452;8.466;2023-05-07T11:33:39;3.10;;;2.87;;
12459;SDS011;6295;49.452;8.466;2023-05-07T11:37:42;3.40;;;2.80;;
12459;SDS011;6295;49.452;8.466;2023-05-07T11:41:44;4.00;;;3.00;;
12459;SDS011;6295;49.452;8.466;2023-05-07T11:45:47;3.20;;;2.90;;
12459;SDS011;6295;49.452;8.466;2023-05-07T11:49:52;3.30;;;2.83;;
12459;SDS011;6295;49.452;8.466;2023-05-07T11:53:55;3.73;;;2.87;;
12459;SDS011;6295;49.452;8.466;2023-05-07T11:57:57;2.73;;;2.53;;
12459;SDS011;6295;49.452;8.466;2023-05-07T12:01:59;3.70;;;2.80;;
12459;SDS011;6295;49.452;8.466;2023-05-07T12:06:03;2.63;;;2.43;;
12459;SDS011;6295;49.452;8.466;2023-05-07T12:10:07;3.47;;;2.40;;
12459;SDS011;6295;49.452;8.466;2023-05-07T12:14:10;2.73;;;2.50;;
12459;SDS011;6295;49.452;8.466;2023-05-07T12:18:12;2.70;;;2.47;;
12459;SDS011;6295;49.452;8.466;2023-05-07T12:22:16;4.17;;;2.67;;
12459;SDS011;6295;49.452;8.466;2023-05-07T12:26:19;3.23;;;2.93;;
12459;SDS011;6295;49.452;8.466;2023-05-07T12:30:22;2.53;;;2.33;;
12459;SDS011;6295;49.452;8.466;2023-05-07T12:34:24;2.87;;;2.60;;
12459;SDS011;6295;49.452;8.466;2023-05-07T12:38:32;2.60;;;2.40;;
12459;SDS011;6295;49.452;8.466;2023-05-07T12:42:37;2.80;;;2.40;;
12459;SDS011;6295;49.452;8.466;2023-05-07T12:46:40;4.17;;;2.37;;
12459;SDS011;6295;49.452;8.466;2023-05-07T12:50:43;2.50;;;2.40;;
12459;SDS011;6295;49.452;8.466;2023-05-07T12:54:47;3.00;;;2.60;;
12459;SDS011;6295;49.452;8.466;2023-05-07T12:58:49;3.03;;;2.60;;
12459;SDS011;6295;49.452;8.466;2023-05-07T13:02:53;2.87;;;2.67;;
12459;SDS011;6295;49.452;8.466;2023-05-07T13:06:58;2.67;;;2.47;;
12459;SDS011;6295;49.452;8.466;2023-05-07T13:11:02;2.73;;;2.53;;
12459;SDS011;6295;49.452;8.466;2023-05-07T13:15:05;2.60;;;2.40;;
12459;SDS011;6295;49.452;8.466;2023-05-07T13:19:08;2.90;;;2.60;;
12459;SDS011;6295;49.452;8.466;2023-05-07T13:23:11;3.00;;;2.80;;
12459;SDS011;6295;49.452;8.466;2023-05-07T13:27:14;3.07;;;2.87;;
12459;SDS011;6295;49.452;8.466;2023-05-07T13:31:17;3.10;;;2.90;;
12459;SDS011;6295;49.452;8.466;2023-05-07T13:35:21;2.97;;;2.50;;
12459;SDS011;6295;49.452;8.466;2023-05-07T13:39:23;2.87;;;2.60;;
12459;SDS011;6295;49.452;8.466;2023-05-07T13:43:27;3.20;;;2.60;;
12459;SDS011;6295;49.452;8.466;2023-05-07T13:47:29;3.10;;;2.90;;
12459;SDS011;6295;49.452;8.466;2023-05-07T13:51:31;4.10;;;2.90;;
12459;SDS011;6295;49.452;8.466;2023-05-07T13:55:33;4.33;;;2.80;;
12459;SDS011;6295;49.452;8.466;2023-05-07T13:59:37;3.60;;;3.27;;
12459;SDS011;6295;49.452;8.466;2023-05-07T14:03:39;3.87;;;3.20;;
12459;SDS011;6295;49.452;8.466;2023-05-07T14:07:41;4.00;;;3.13;;
12459;SDS011;6295;49.452;8.466;2023-05-07T14:11:43;4.17;;;3.73;;
12459;SDS011;6295;49.452;8.466;2023-05-07T14:15:49;4.63;;;3.80;;
12459;SDS011;6295;49.452;8.466;2023-05-07T14:19:51;5.13;;;3.60;;
12459;SDS011;6295;49.452;8.466;2023-05-07T14:23:54;3.97;;;3.57;;
12459;SDS011;6295;49.452;8.466;2023-05-07T14:27:56;4.00;;;3.60;;
12459;SDS011;6295;49.452;8.466;2023-05-07T14:32:00;5.30;;;4.77;;
12459;SDS011;6295;49.452;8.466;2023-05-07T14:36:02;7.27;;;6.53;;
12459;SDS011;6295;49.452;8.466;2023-05-07T14:40:05;7.13;;;6.43;;
12459;SDS011;6295;49.452;8.466;2023-05-07T14:44:08;11.67;;;10.33;;
12459;SDS011;6295;49.452;8.466;2023-05-07T14:48:11;9.77;;;8.53;;
12459;SDS011;6295;49.452;8.466;2023-05-07T14:52:15;6.50;;;5.83;;
12459;SDS011;6295;49.452;8.466;2023-05-07T14:56:17;6.67;;;4.90;;
12459;SDS011;6295;49.452;8.466;2023-05-07T15:00:19;4.87;;;4.37;;
12459;SDS011;6295;49.452;8.466;2023-05-07T15:04:23;9.07;;;5.67;;
12459;SDS011;6295;49.452;8.466;2023-05-07T15:08:25;5.07;;;4.57;;
12459;SDS011;6295;49.452;8.466;2023-05-07T15:12:27;7.23;;;4.40;;
12459;SDS011;6295;49.452;8.466;2023-05-07T15:16:30;4.63;;;4.00;;
12459;SDS011;6295;49.452;8.466;2023-05-07T15:20:34;4.17;;;3.67;;
12459;SDS011;6295;49.452;8.466;2023-05-07T15:24:37;5.33;;;3.50;;
12459;SDS011;6295;49.452;8.466;2023-05-07T15:28:39;4.17;;;3.27;;
12459;SDS011;6295;49.452;8.466;2023-05-07T15:32:43;3.97;;;3.00;;
12459;SDS011;6295;49.452;8.466;2023-05-07T15:36:48;4.63;;;2.73;;
12459;SDS011;6295;49.452;8.466;2023-05-07T15:40:50;5.70;;;2.90;;
12459;SDS011;6295;49.452;8.466;2023-05-07T15:44:52;3.83;;;2.80;;
12459;SDS011;6295;49.452;8.466;2023-05-07T15:48:54;4.17;;;2.63;;
12459;SDS011;6295;49.452;8.466;2023-05-07T15:52:58;2.90;;;2.27;;
12459;SDS011;6295;49.452;8.466;2023-05-07T15:57:00;2.60;;;2.40;;
12459;SDS011;6295;49.452;8.466;2023-05-07T16:01:03;2.37;;;2.00;;
12459;SDS011;6295;49.452;8.466;2023-05-07T16:05:06;3.10;;;2.00;;
12459;SDS011;6295;49.452;8.466;2023-05-07T16:09:11;2.03;;;1.90;;
12459;SDS011;6295;49.452;8.466;2023-05-07T16:13:13;2.73;;;2.07;;
12459;SDS011;6295;49.452;8.466;2023-05-07T16:17:18;2.40;;;2.20;;
12459;SDS011;6295;49.452;8.466;2023-05-07T16:21:20;6.37;;;3.10;;
12459;SDS011;6295;49.452;8.466;2023-05-07T16:25:23;5.17;;;2.93;;
12459;SDS011;6295;49.452;8.466;2023-05-07T16:29:25;4.47;;;2.70;;
12459;SDS011;6295;49.452;8.466;2023-05-07T16:33:27;5.33;;;3.30;;
12459;SDS011;6295;49.452;8.466;2023-05-07T16:37:31;6.83;;;4.10;;
12459;SDS011;6295;49.452;8.466;2023-05-07T16:41:35;4.63;;;4.10;;
12459;SDS011;6295;49.452;8.466;2023-05-07T16:45:38;8.83;;;5.70;;
12459;SDS011;6295;49.452;8.466;2023-05-07T16:49:40;12.30;;;8.83;;
12459;SDS011;6295;49.452;8.466;2023-05-07T16:53:42;11.13;;;8.50;;
12459;SDS011;6295;49.452;8.466;2023-05-07T16:57:46;7.17;;;6.07;;
12459;SDS011;6295;49.452;8.466;2023-05-07T17:01:48;5.13;;;4.30;;
12459;SDS011;6295;49.452;8.466;2023-05-07T17:05:51;5.37;;;3.80;;
12459;SDS011;6295;49.452;8.466;2023-05-07T17:09:53;3.60;;;2.90;;
12459;SDS011;6295;49.452;8.466;2023-05-07T17:13:59;4.50;;;3.27;;
12459;SDS011;6295;49.452;8.466;2023-05-07T17:18:07;3.33;;;3.03;;
12459;SDS011;6295;49.452;8.466;2023-05-07T17:22:12;3.90;;;2.80;;
12459;SDS011;6295;49.452;8.466;2023-05-07T17:26:14;3.70;;;2.80;;
12459;SDS011;6295;49.452;8.466;2023-05-07T17:30:18;3.93;;;3.00;;
12459;SDS011;6295;49.452;8.466;2023-05-07T17:34:21;4.57;;;3.00;;
12459;SDS011;6295;49.452;8.466;2023-05-07T17:38:23;4.30;;;2.63;;
12459;SDS011;6295;49.452;8.466;2023-05-07T17:42:25;3.47;;;2.73;;
12459;SDS011;6295;49.452;8.466;2023-05-07T17:46:29;3.27;;;2.97;;
12459;SDS011;6295;49.452;8.466;2023-05-07T17:50:31;4.03;;;2.77;;
12459;SDS011;6295;49.452;8.466;2023-05-07T17:54:33;3.83;;;3.13;;
12459;SDS011;6295;49.452;8.466;2023-05-07T17:58:35;4.67;;;3.50;;
12459;SDS011;6295;49.452;8.466;2023-05-07T18:02:39;3.90;;;3.50;;
12459;SDS011;6295;49.452;8.466;2023-05-07T18:06:41;3.63;;;3.30;;
12459;SDS011;6295;49.452;8.466;2023-05-07T18:10:43;4.03;;;3.40;;
12459;SDS011;6295;49.452;8.466;2023-05-07T18:14:46;5.33;;;4.27;;
12459;SDS011;6295;49.452;8.466;2023-05-07T18:18:49;4.60;;;3.93;;
12459;SDS011;6295;49.452;8.466;2023-05-07T18:22:51;4.17;;;3.77;;
12459;SDS011;6295;49.452;8.466;2023-05-07T18:26:53;3.97;;;3.57;;
12459;SDS011;6295;49.452;8.466;2023-05-07T18:30:56;4.20;;;3.57;;
12459;SDS011;6295;49.452;8.466;2023-05-07T18:34:59;4.20;;;3.40;;
12459;SDS011;6295;49.452;8.466;2023-05-07T18:39:01;4.40;;;4.00;;
12459;SDS011;6295;49.452;8.466;2023-05-07T18:43:04;5.67;;;4.37;;
12459;SDS011;6295;49.452;8.466;2023-05-07T18:47:06;4.40;;;4.00;;
12459;SDS011;6295;49.452;8.466;2023-05-07T18:51:09;5.03;;;3.57;;
12459;SDS011;6295;49.452;8.466;2023-05-07T18:55:11;3.93;;;3.53;;
